Time;durP1;ratioP1;P1;durP2;ratioP2;P2;SDS_P1;SDS_P2;PMS_P1;PMS_P2;Temp;Humidity;BMP_temperature;BMP_pressure;BME280_temperature;BME280_humidity;BME280_pressure;Samples;Min_cycle;Max_cycle;Signal;HPM_P1;HPM_P2
2022/04/25 00:01:45;;;;;;;5.50;4.90;;;;;;;11.00;68.02;99176.78;105599;1282;23973;-78
2022/04/25 00:04:11;;;;;;;6.20;5.00;;;;;;;11.04;68.04;99178.95;105190;1284;22567;-78
2022/04/25 00:06:37;;;;;;;5.70;5.10;;;;;;;11.04;68.01;99172.27;105400;1282;26551;-79
2022/04/25 00:09:04;;;;;;;5.90;5.10;;;;;;;11.02;68.06;99176.00;105479;1282;25422;-76
2022/04/25 00:11:30;;;;;;;5.50;5.00;;;;;;;10.99;68.07;99173.46;105655;1281;26593;-77
2022/04/25 00:13:56;;;;;;;6.00;5.40;;;;;;;10.93;68.10;99172.77;105558;1281;24259;-75
2022/04/25 00:16:23;;;;;;;6.20;5.60;;;;;;;10.82;68.15;99172.52;105475;1281;26729;-77
2022/04/25 00:18:50;;;;;;;6.50;5.80;;;;;;;10.79;68.48;99178.09;104801;1287;25711;-80
2022/04/25 00:21:16;;;;;;;6.10;5.20;;;;;;;10.77;68.59;99176.75;104771;1287;25475;-79
2022/04/25 00:23:43;;;;;;;5.00;4.50;;;;;;;10.77;68.74;99176.21;104952;1288;25622;-82
2022/04/25 00:26:09;;;;;;;5.50;5.00;;;;;;;10.82;68.96;99178.04;104464;1290;23996;-78
2022/04/25 00:28:35;;;;;;;6.20;5.70;;;;;;;10.83;69.04;99174.27;104562;1287;22729;-82
2022/04/25 00:31:01;;;;;;;6.90;5.90;;;;;;;10.84;68.82;99168.62;104820;1287;25551;-80
2022/04/25 00:33:28;;;;;;;6.60;6.00;;;;;;;10.84;68.90;99164.21;104612;1290;26555;-77
2022/04/25 00:35:54;;;;;;;6.10;5.10;;;;;;;10.83;68.87;99163.73;104722;1287;25906;-80
2022/04/25 00:38:20;;;;;;;5.80;5.20;;;;;;;10.83;68.92;99159.69;105346;1282;24719;-80
2022/04/25 00:40:46;;;;;;;5.90;5.30;;;;;;;10.85;69.06;99163.48;108102;1281;24482;-78
2022/04/25 00:43:13;;;;;;;5.50;4.90;;;;;;;10.86;69.16;99165.55;106858;1281;23823;-78
2022/04/25 00:45:39;;;;;;;5.70;5.10;;;;;;;10.87;69.14;99165.88;105681;1281;23025;-77
2022/04/25 00:48:06;;;;;;;4.90;4.40;;;;;;;10.89;69.07;99162.14;105430;1282;26554;-83
2022/04/25 00:50:33;;;;;;;5.10;4.60;;;;;;;10.91;69.04;99167.00;105464;1281;22590;-76
2022/04/25 00:52:59;;;;;;;5.20;4.40;;;;;;;10.92;68.97;99166.44;105443;1281;22641;-84
2022/04/25 00:55:26;;;;;;;5.50;4.50;;;;;;;10.93;69.12;99163.96;105426;1281;25337;-77
2022/04/25 00:57:56;;;;;;;4.70;4.30;;;;;;;10.94;69.13;99163.21;105378;1285;22574;-78
2022/04/25 01:00:23;;;;;;;5.60;4.90;;;;;;;10.95;69.01;99166.70;105440;1281;24351;-79
2022/04/25 01:02:49;;;;;;;4.90;4.50;;;;;;;10.97;69.17;99163.49;105525;1281;22730;-80
2022/04/25 01:05:16;;;;;;;6.40;4.80;;;;;;;10.98;69.19;99158.32;105400;1281;25397;-78
2022/04/25 01:07:42;;;;;;;6.90;4.90;;;;;;;10.96;68.96;99161.75;105317;1284;22710;-81
2022/04/25 01:10:10;;;;;;;6.60;4.90;;;;;;;10.90;69.02;99153.13;105339;1284;25401;-85
2022/04/25 01:12:37;;;;;;;5.60;4.60;;;;;;;10.89;69.01;99151.73;105593;1284;22995;-84
2022/04/25 01:15:05;;;;;;;6.50;4.20;;;;;;;10.82;68.94;99155.11;105364;1285;22591;-82
2022/04/25 01:17:32;;;;;;;5.50;3.90;;;;;;;10.79;69.05;99150.96;105183;1285;22635;-82
2022/04/25 01:20:00;;;;;;;4.70;4.20;;;;;;;10.81;69.34;99148.64;105993;1287;22571;-83
2022/04/25 01:22:56;;;;;;;5.60;4.90;;;;;;;10.83;69.35;99144.36;107278;1285;22612;-82
2022/04/25 01:28:19;;;;;;;;;;;;;;;10.84;69.49;99143.25;103573;1300;24451;-82
2022/04/25 01:30:45;;;;;;;5.40;4.90;;;;;;;10.85;69.51;99136.89;104706;1296;24245;-83
2022/04/25 01:33:12;;;;;;;5.40;4.80;;;;;;;10.83;69.37;99133.08;103894;1297;25451;-82
2022/04/25 01:35:38;;;;;;;4.90;4.20;;;;;;;10.74;69.25;99130.69;103979;1296;23071;-80
2022/04/25 01:38:05;;;;;;;5.70;4.80;;;;;;;10.69;69.38;99127.86;103987;1299;23975;-81
2022/04/25 01:40:31;;;;;;;4.60;4.10;;;;;;;10.64;69.71;99126.23;104081;1296;22887;-80
2022/04/25 01:42:57;;;;;;;4.90;4.40;;;;;;;10.67;69.69;99125.98;104195;1293;25471;-83
2022/04/25 01:45:24;;;;;;;5.00;4.20;;;;;;;10.67;69.35;99123.70;104920;1288;22563;-83
2022/04/25 01:47:50;;;;;;;5.20;4.70;;;;;;;10.64;69.81;99122.52;104820;1287;24261;-82
2022/04/25 01:50:16;;;;;;;5.80;5.10;;;;;;;10.67;69.84;99126.52;104204;1294;25201;-83
2022/04/25 01:52:43;;;;;;;5.20;4.70;;;;;;;10.68;69.87;99125.92;104377;1287;22712;-81
2022/04/25 01:55:09;;;;;;;6.20;4.30;;;;;;;10.68;69.80;99127.54;104849;1287;22559;-79
2022/04/25 01:57:35;;;;;;;5.50;4.90;;;;;;;10.67;69.90;99126.01;104893;1288;22591;-77
2022/04/25 02:00:03;;;;;;;5.00;4.50;;;;;;;10.65;70.01;99125.69;104778;1288;22567;-72
2022/04/25 02:02:31;;;;;;;4.90;4.40;;;;;;;10.66;69.87;99129.54;105101;1287;25336;-78
2022/04/25 02:04:59;;;;;;;6.20;4.20;;;;;;;10.60;69.79;99128.98;105013;1288;25456;-77
2022/04/25 02:07:25;;;;;;;5.90;4.20;;;;;;;10.58;69.81;99124.48;104905;1287;25409;-75
2022/04/25 02:09:52;;;;;;;5.10;4.60;;;;;;;10.50;69.77;99125.44;105290;1284;25280;-76
2022/04/25 02:12:18;;;;;;;4.90;4.40;;;;;;;10.48;70.26;99127.77;105527;1281;22579;-81
2022/04/25 02:14:46;;;;;;;5.40;4.50;;;;;;;10.50;70.32;99122.95;105596;1281;22570;-79
2022/04/25 02:17:15;;;;;;;5.10;4.60;;;;;;;10.51;70.39;99122.05;105118;1284;22721;-79
2022/04/25 02:19:44;;;;;;;6.30;4.60;;;;;;;10.49;70.41;99123.67;105271;1284;23179;-78
2022/04/25 02:22:12;;;;;;;5.10;4.20;;;;;;;10.52;70.36;99123.23;105353;1281;22593;-79
2022/04/25 02:24:39;;;;;;;5.10;4.60;;;;;;;10.50;70.27;99117.83;105577;1281;24404;-76
2022/04/25 02:27:07;;;;;;;5.10;4.60;;;;;;;10.53;70.20;99114.95;105471;1281;22603;-79
2022/04/25 02:29:34;;;;;;;4.60;4.20;;;;;;;10.54;70.28;99116.69;105108;1284;24335;-81
2022/04/25 02:32:02;;;;;;;5.50;4.60;;;;;;;10.47;69.98;99119.87;105298;1281;22649;-78
2022/04/25 02:34:29;;;;;;;5.80;5.00;;;;;;;10.39;70.27;99117.42;105207;1281;22560;-80
2022/04/25 02:36:56;;;;;;;5.50;4.90;;;;;;;10.40;70.53;99119.52;105319;1282;26677;-77
2022/04/25 02:39:24;;;;;;;5.80;4.50;;;;;;;10.39;70.39;99117.08;105358;1282;22573;-80
2022/04/25 02:41:51;;;;;;;4.60;4.10;;;;;;;10.36;70.45;99119.46;105459;1281;22576;-79
2022/04/25 02:44:18;;;;;;;4.90;4.20;;;;;;;10.32;70.40;99120.99;105680;1281;22627;-79
2022/04/25 02:46:44;;;;;;;4.40;3.80;;;;;;;10.28;70.62;99124.42;105498;1281;22563;-77
2022/04/25 02:49:10;;;;;;;4.70;4.20;;;;;;;10.33;70.88;99126.23;105504;1281;22510;-77
2022/04/25 02:51:37;;;;;;;5.20;4.50;;;;;;;10.38;70.76;99127.67;105762;1281;23974;-78
2022/04/25 02:54:03;;;;;;;5.10;4.60;;;;;;;10.38;70.71;99128.90;106911;1282;25307;-77
2022/04/25 02:56:29;;;;;;;5.10;4.60;;;;;;;10.38;70.79;99124.30;106795;1281;22671;-79
2022/04/25 02:58:55;;;;;;;5.80;4.90;;;;;;;10.37;70.78;99123.81;107180;1281;24024;-80
2022/04/25 03:01:21;;;;;;;5.60;5.00;;;;;;;10.36;70.77;99127.20;107626;1281;22745;-80
2022/04/25 03:03:48;;;;;;;5.40;4.90;;;;;;;10.34;70.70;99125.51;107222;1284;22551;-80
2022/04/25 03:06:14;;;;;;;5.10;4.50;;;;;;;10.30;70.62;99128.27;107166;1281;23279;-84
2022/04/25 03:08:40;;;;;;;4.70;4.20;;;;;;;10.28;70.82;99130.24;107623;1284;22554;-79
2022/04/25 03:11:08;;;;;;;4.70;4.20;;;;;;;10.34;70.97;99124.08;107644;1283;22604;-78
2022/04/25 03:13:35;;;;;;;5.70;5.20;;;;;;;10.39;70.92;99130.27;106912;1281;22594;-78
2022/04/25 03:16:04;;;;;;;5.10;4.60;;;;;;;10.44;71.02;99134.71;105948;1281;22626;-75
2022/04/25 03:18:31;;;;;;;6.20;4.80;;;;;;;10.50;71.06;99138.98;105834;1281;24268;-76
2022/04/25 03:20:58;;;;;;;5.70;5.10;;;;;;;10.51;70.83;99138.41;105940;1284;25232;-74
2022/04/25 03:23:25;;;;;;;5.90;5.00;;;;;;;10.47;70.58;99142.05;105910;1281;25403;-80
2022/04/25 03:25:52;;;;;;;6.10;5.10;;;;;;;10.44;70.78;99144.02;105924;1281;22615;-78
2022/04/25 03:28:19;;;;;;;5.80;4.40;;;;;;;10.41;70.77;99145.52;105586;1284;26985;-76
2022/04/25 03:30:45;;;;;;;6.00;4.70;;;;;;;10.40;70.87;99144.14;105483;1281;25395;-80
2022/04/25 03:33:12;;;;;;;5.30;4.80;;;;;;;10.42;70.99;99136.54;105937;1281;22566;-80
2022/04/25 03:35:46;;;;;;;7.20;5.30;;;;;;;10.46;70.88;99140.84;105550;1281;23972;-78
2022/04/25 03:38:17;;;;;;;5.90;5.00;;;;;;;10.41;70.73;99136.73;105597;1281;22569;-83
2022/04/25 03:40:43;;;;;;;5.80;5.00;;;;;;;10.36;70.76;99135.13;105837;1281;24823;-86
2022/04/25 03:43:10;;;;;;;5.60;5.00;;;;;;;10.33;71.03;99136.77;105917;1281;22715;-85
2022/04/25 03:45:37;;;;;;;5.90;5.20;;;;;;;10.32;70.85;99138.91;105971;1281;22584;-82
2022/04/25 03:48:04;;;;;;;5.60;5.00;;;;;;;10.26;70.89;99138.55;105661;1282;22712;-82
2022/04/25 03:50:34;;;;;;;5.60;4.80;;;;;;;10.19;70.84;99138.41;106256;1282;24285;-81
2022/04/25 03:53:09;;;;;;;5.30;4.70;;;;;;;10.08;70.88;99138.70;105422;1288;25299;-84
2022/04/25 03:58:21;;;;;;;6.30;4.90;;;;;;;9.95;71.29;99147.50;106009;1287;24288;-78
2022/04/25 04:00:49;;;;;;;6.10;5.20;;;;;;;9.92;71.69;99149.48;105215;1290;22612;-80
2022/04/25 04:03:17;;;;;;;6.10;5.40;;;;;;;10.00;71.99;99148.21;105540;1288;22526;-80
2022/04/25 04:05:50;;;;;;;6.70;6.10;;;;;;;10.09;71.93;99147.83;105970;1287;25289;-78
2022/04/25 04:08:16;;;;;;;6.40;5.80;;;;;;;10.13;71.72;99154.40;105760;1290;22558;-82
2022/04/25 04:10:42;;;;;;;5.90;5.30;;;;;;;10.13;71.70;99156.67;104814;1284;22736;-80
2022/04/25 04:13:09;;;;;;;7.40;5.50;;;;;;;10.13;71.70;99159.48;105826;1284;22575;-80
2022/04/25 04:15:36;;;;;;;5.50;5.00;;;;;;;10.22;71.83;99163.48;105886;1284;24226;-78
2022/04/25 04:18:04;;;;;;;6.60;6.00;;;;;;;10.26;71.54;99163.55;105562;1284;22588;-78
2022/04/25 04:20:31;;;;;;;6.30;5.70;;;;;;;10.32;71.60;99173.25;105474;1282;26516;-78
2022/04/25 04:22:58;;;;;;;6.40;5.60;;;;;;;10.36;71.48;99168.20;105697;1282;24265;-85
2022/04/25 04:25:24;;;;;;;6.70;6.00;;;;;;;10.30;71.12;99172.05;105949;1282;26612;-84
2022/04/25 04:27:50;;;;;;;6.80;6.10;;;;;;;10.27;71.29;99171.45;105775;1282;22595;-86
2022/04/25 04:30:18;;;;;;;6.40;5.80;;;;;;;10.22;71.48;99176.84;105688;1284;25283;-89
2022/04/25 04:32:45;;;;;;;6.20;5.60;;;;;;;10.23;71.45;99177.52;105200;1287;22667;-86
2022/04/25 04:35:15;;;;;;;5.70;5.10;;;;;;;10.23;71.44;99178.58;105323;1287;22530;-88
2022/04/25 04:37:41;;;;;;;6.10;5.50;;;;;;;10.26;71.52;99177.81;105230;1287;25293;-80
2022/04/25 04:42:55;;;;;;;6.20;5.60;;;;;;;10.26;71.32;99185.72;104988;1287;24424;-83
2022/04/25 04:45:21;;;;;;;6.80;5.80;;;;;;;10.24;71.30;99192.27;104895;1287;22600;-81
2022/04/25 04:47:48;;;;;;;6.30;5.70;;;;;;;10.19;71.22;99199.63;105949;1287;22512;-85
2022/04/25 04:50:17;;;;;;;6.10;5.60;;;;;;;10.14;71.50;99199.73;107460;1284;22866;-86
2022/04/25 04:53:01;;;;;;;7.70;6.10;;;;;;;10.18;71.61;99204.04;108167;1282;25341;-88
2022/04/25 04:55:29;;;;;;;7.00;6.10;;;;;;;10.22;71.59;99200.95;105334;1282;22499;-86
2022/04/25 04:57:58;;;;;;;6.30;5.70;;;;;;;10.24;71.61;99201.77;105151;1282;25533;-84
2022/04/25 05:00:24;;;;;;;6.90;6.20;;;;;;;10.29;71.56;99203.77;105684;1281;24260;-84
2022/04/25 05:02:51;;;;;;;8.10;6.30;;;;;;;10.32;71.64;99203.15;105649;1281;22722;-87
2022/04/25 05:05:19;;;;;;;7.40;6.70;;;;;;;10.35;71.69;99201.13;105762;1281;25976;-87
2022/04/25 05:07:45;;;;;;;11.50;6.60;;;;;;;10.38;71.64;99202.27;105123;1282;203579;-87
2022/04/25 05:10:12;;;;;;;7.60;6.60;;;;;;;10.38;71.62;99200.52;105291;1281;22548;-86
2022/04/25 05:12:46;;;;;;;7.80;7.00;;;;;;;10.38;71.69;99201.39;104786;1288;22585;-84
2022/04/25 05:15:13;;;;;;;7.10;6.40;;;;;;;10.38;71.50;99206.67;105061;1287;23899;-87
2022/04/25 05:17:45;;;;;;;6.10;5.50;;;;;;;10.39;71.66;99212.11;104807;1288;24290;-87
2022/04/25 05:20:12;;;;;;;6.20;5.70;;;;;;;10.38;71.52;99210.71;104933;1290;24245;-88
2022/04/25 05:22:40;;;;;;;8.30;7.50;;;;;;;10.35;71.66;99207.27;104718;1288;22838;-87
2022/04/25 05:25:07;;;;;;;9.70;6.50;;;;;;;10.38;71.62;99210.89;104812;1287;26558;-84
2022/04/25 05:27:34;;;;;;;6.30;5.80;;;;;;;10.40;71.63;99208.21;104767;1288;22717;-90
2022/04/25 05:30:00;;;;;;;7.50;6.80;;;;;;;10.35;71.63;99207.84;104916;1287;22586;-89
2022/04/25 05:32:27;;;;;;;9.50;6.90;;;;;;;10.35;71.78;99209.57;104838;1288;22609;-89
2022/04/25 05:34:53;;;;;;;7.00;6.30;;;;;;;10.34;71.93;99212.42;104966;1288;22562;-82
2022/04/25 05:37:19;;;;;;;7.00;6.40;;;;;;;10.34;71.94;99214.89;104992;1282;22719;-85
2022/04/25 05:39:45;;;;;;;7.00;6.30;;;;;;;10.31;72.17;99207.21;105391;1282;22704;-85
2022/04/25 05:42:11;;;;;;;7.30;6.40;;;;;;;10.42;72.14;99216.25;105412;1282;23918;-87
2022/04/25 05:44:37;;;;;;;7.40;6.70;;;;;;;10.47;72.15;99215.09;105196;1282;22576;-86
2022/04/25 05:47:04;;;;;;;7.00;6.20;;;;;;;10.44;71.88;99211.27;105533;1281;24297;-86
2022/04/25 05:52:16;;;;;;;7.40;6.20;;;;;;;10.37;72.25;99220.96;106304;1281;25532;-85
2022/04/25 05:54:46;;;;;;;7.10;6.40;;;;;;;10.30;72.16;99221.34;106948;1281;22736;-85
2022/04/25 05:57:13;;;;;;;7.50;6.80;;;;;;;10.24;72.46;99228.67;105854;1281;22541;-87
2022/04/25 05:59:41;;;;;;;6.90;6.10;;;;;;;10.27;72.56;99228.09;104905;1290;24297;-86
2022/04/25 06:02:07;;;;;;;6.80;5.50;;;;;;;10.34;72.55;99235.47;104728;1293;25379;-85
2022/04/25 06:04:34;;;;;;;6.40;5.80;;;;;;;10.37;72.50;99233.29;105280;1293;23974;-87
2022/04/25 06:07:04;;;;;;;6.60;5.90;;;;;;;10.37;72.45;99230.64;104756;1293;23227;-85
2022/04/25 06:09:30;;;;;;;7.00;6.40;;;;;;;10.38;72.66;99233.25;104668;1294;22572;-86
2022/04/25 06:11:56;;;;;;;6.40;5.80;;;;;;;10.44;72.81;99235.22;104623;1293;22560;-86
2022/04/25 06:14:23;;;;;;;7.00;6.30;;;;;;;10.43;72.44;99241.39;104637;1294;22573;-86
2022/04/25 06:16:49;;;;;;;6.70;6.10;;;;;;;10.40;72.55;99244.83;104727;1292;22579;-85
2022/04/25 06:19:16;;;;;;;6.40;5.80;;;;;;;10.38;72.72;99246.61;105403;1287;23107;-87
2022/04/25 06:21:43;;;;;;;6.50;5.80;;;;;;;10.37;72.67;99244.70;105775;1281;24204;-86
2022/04/25 06:24:12;;;;;;;6.00;5.40;;;;;;;10.36;72.59;99246.15;105998;1281;24235;-87
2022/04/25 06:26:38;;;;;;;6.50;5.90;;;;;;;10.37;72.71;99249.45;105451;1281;23959;-86
2022/04/25 06:29:05;;;;;;;7.00;6.00;;;;;;;10.43;72.89;99253.36;105687;1281;22757;-86
2022/04/25 06:31:31;;;;;;;6.70;5.90;;;;;;;10.51;72.84;99251.08;106211;1281;24240;-86
2022/04/25 06:33:59;;;;;;;8.80;7.10;;;;;;;10.57;72.67;99248.79;105573;1282;23228;-85
2022/04/25 06:36:26;;;;;;;9.40;6.70;;;;;;;10.57;72.53;99252.66;105594;1281;22724;-85
2022/04/25 06:38:53;;;;;;;6.60;6.00;;;;;;;10.56;72.38;99251.98;105720;1281;22547;-87
2022/04/25 06:41:21;;;;;;;6.80;6.10;;;;;;;10.54;72.49;99256.63;105651;1281;22673;-86
2022/04/25 06:43:47;;;;;;;6.10;5.50;;;;;;;10.56;72.57;99258.85;105428;1281;23807;-87
2022/04/25 06:46:13;;;;;;;6.00;5.40;;;;;;;10.63;72.62;99255.48;105811;1281;25434;-85
2022/04/25 06:49:19;;;;;;;8.90;5.70;;;;;;;10.67;72.36;99251.88;105796;1282;25408;-85
2022/04/25 06:51:27;;;;;;;7.10;5.90;;;;;;;10.64;72.32;99247.55;105659;1282;24392;-84
2022/04/25 06:53:54;;;;;;;6.70;6.10;;;;;;;10.67;72.55;99250.29;105480;1282;25586;-85
2022/04/25 06:56:20;;;;;;;7.00;6.40;;;;;;;10.72;72.69;99252.98;105417;1282;22550;-87
2022/04/25 06:58:47;;;;;;;6.60;6.00;;;;;;;10.76;72.61;99256.04;105508;1281;25959;-85
2022/04/25 07:01:14;;;;;;;6.50;5.90;;;;;;;10.74;72.35;99259.09;105390;1281;22801;-85
2022/04/25 07:03:41;;;;;;;6.30;5.70;;;;;;;10.71;72.43;99259.32;105321;1285;22776;-86
2022/04/25 07:06:08;;;;;;;5.90;5.20;;;;;;;10.71;72.39;99260.75;105609;1285;22589;-86
2022/04/25 07:08:34;;;;;;;6.50;5.90;;;;;;;10.74;72.09;99268.40;106575;1285;25396;-87
2022/04/25 07:11:00;;;;;;;6.50;5.80;;;;;;;10.67;72.02;99269.31;106205;1285;22575;-86
2022/04/25 07:13:26;;;;;;;6.60;6.00;;;;;;;10.65;72.35;99272.35;105438;1285;24321;-84
2022/04/25 07:15:57;;;;;;;6.10;5.50;;;;;;;10.71;72.43;99274.67;105381;1285;22682;-85
2022/04/25 07:18:23;;;;;;;7.00;6.10;;;;;;;10.69;72.17;99276.83;105234;1285;22718;-86
2022/04/25 07:20:49;;;;;;;7.70;6.60;;;;;;;10.62;72.08;99280.14;105205;1285;22769;-84
2022/04/25 07:28:48;;;;;;;5.90;5.40;;;;;;;10.67;72.35;99286.04;105091;1285;22686;-85
2022/04/25 07:31:17;;;;;;;6.70;5.90;;;;;;;10.68;72.48;99289.35;105457;1285;22586;-87
2022/04/25 07:33:45;;;;;;;6.90;6.20;;;;;;;10.75;72.57;99292.34;105511;1285;22762;-88
2022/04/25 07:36:14;;;;;;;6.80;6.20;;;;;;;10.80;72.48;99289.03;105219;1290;22652;-86
2022/04/25 07:38:45;;;;;;;7.40;6.70;;;;;;;10.78;72.31;99294.18;105082;1290;23991;-85
2022/04/25 07:41:13;;;;;;;7.40;6.60;;;;;;;10.72;72.41;99296.63;104857;1290;25423;-85
2022/04/25 07:43:40;;;;;;;6.90;6.20;;;;;;;10.74;72.38;99301.16;104930;1288;26547;-87
2022/04/25 07:46:07;;;;;;;5.80;5.20;;;;;;;10.75;72.36;99301.83;104336;1293;25302;-85
2022/04/25 07:48:34;;;;;;;6.00;5.50;;;;;;;10.79;72.38;99303.15;104867;1293;25386;-86
2022/04/25 07:51:01;;;;;;;7.00;6.30;;;;;;;10.79;72.24;99302.43;105428;1294;22658;-86
2022/04/25 07:53:30;;;;;;;6.80;6.10;;;;;;;10.82;72.21;99304.48;105670;1293;22565;-86
2022/04/25 07:55:56;;;;;;;6.90;6.10;;;;;;;10.84;72.21;99309.86;106404;1288;24997;-87
2022/04/25 07:58:23;;;;;;;6.50;5.90;;;;;;;10.87;72.10;99310.84;107508;1288;22655;-87
2022/04/25 08:00:49;;;;;;;6.80;6.20;;;;;;;10.85;71.83;99314.23;107087;1293;22633;-86
2022/04/25 08:03:15;;;;;;;6.80;6.10;;;;;;;10.74;71.54;99314.02;107151;1293;23963;-86
2022/04/25 08:05:43;;;;;;;6.30;5.40;;;;;;;10.67;71.95;99318.78;107948;1287;23058;-86
2022/04/25 08:08:09;;;;;;;5.80;5.10;;;;;;;10.71;71.95;99319.38;108278;1287;22694;-86
2022/04/25 08:10:45;;;;;;;6.50;5.80;;;;;;;10.75;71.87;99318.74;108105;1287;22575;-88
2022/04/25 08:18:43;;;;;;;6.20;5.60;;;;;;;10.99;71.50;99328.67;106347;1287;24301;-87
2022/04/25 08:21:09;;;;;;;6.10;5.60;;;;;;;11.01;71.30;99333.36;106456;1287;22681;-85
2022/04/25 08:23:36;;;;;;;5.50;5.00;;;;;;;11.00;71.59;99334.98;106216;1290;22518;-86
2022/04/25 08:26:03;;;;;;;5.70;5.10;;;;;;;11.03;71.54;99333.66;106537;1287;22566;-86
2022/04/25 08:28:30;;;;;;;5.10;4.50;;;;;;;11.01;71.29;99335.48;106556;1287;22507;-86
2022/04/25 08:31:29;;;;;;;5.20;4.40;;;;;;;11.02;71.51;99334.74;106536;1287;22849;-87
2022/04/25 08:34:14;;;;;;;6.30;5.70;;;;;;;11.01;71.47;99335.81;106915;1287;22737;-86
2022/04/25 08:36:41;;;;;;;6.40;5.60;;;;;;;11.06;71.49;99342.02;106348;1286;23963;-85
2022/04/25 08:39:07;;;;;;;8.20;4.80;;;;;;;11.09;71.46;99344.95;106141;1287;23397;-86
2022/04/25 08:41:36;;;;;;;5.30;4.80;;;;;;;11.10;71.33;99342.09;105868;1287;22735;-85
2022/04/25 08:44:05;;;;;;;5.50;4.60;;;;;;;11.08;71.38;99334.77;105860;1287;25400;-85
2022/04/25 08:46:35;;;;;;;5.40;4.90;;;;;;;11.17;71.43;99343.50;105825;1287;25617;-85
2022/04/25 08:49:05;;;;;;;6.80;4.40;;;;;;;11.20;71.45;99345.72;106454;1281;24263;-88
2022/04/25 08:51:38;;;;;;;5.50;4.20;;;;;;;11.21;71.42;99346.38;106291;1281;24038;-87
2022/04/25 08:54:08;;;;;;;4.70;4.30;;;;;;;11.19;71.25;99348.20;106126;1281;23444;-87
2022/04/25 08:56:38;;;;;;;7.00;5.00;;;;;;;11.15;71.51;99346.70;107582;1282;22503;-85
2022/04/25 08:59:06;;;;;;;6.20;5.20;;;;;;;11.14;71.56;99344.98;107088;1282;22698;-87
2022/04/25 09:01:34;;;;;;;7.20;4.60;;;;;;;11.19;71.59;99350.48;106591;1282;22788;-87
2022/04/25 09:04:01;;;;;;;6.30;5.00;;;;;;;11.17;71.32;99351.27;106768;1282;25291;-87
2022/04/25 09:06:30;;;;;;;6.00;4.50;;;;;;;11.11;71.54;99356.87;107475;1281;22845;-87
2022/04/25 09:08:57;;;;;;;5.30;4.50;;;;;;;11.06;71.43;99357.17;107544;1282;24090;-87
2022/04/25 09:14:10;;;;;;;4.80;4.30;;;;;;;11.20;72.17;99360.33;105725;1290;22519;-88
2022/04/25 09:16:38;;;;;;;7.70;5.10;;;;;;;11.31;72.15;99357.02;105964;1290;25298;-86
2022/04/25 09:19:14;;;;;;;4.70;4.00;;;;;;;11.41;71.92;99358.16;105579;1290;25301;-87
2022/04/25 09:21:44;;;;;;;5.10;4.50;;;;;;;11.47;71.79;99360.96;105711;1290;26637;-85
2022/04/25 09:24:26;;;;;;;5.40;4.00;;;;;;;11.46;71.72;99363.80;105506;1290;22851;-86
2022/04/25 09:27:09;;;;;;;4.80;3.90;;;;;;;11.46;71.49;99369.29;105572;1290;22515;-87
2022/04/25 09:29:37;;;;;;;4.70;4.10;;;;;;;11.33;71.58;99370.01;105693;1290;22724;-87
2022/04/25 09:32:06;;;;;;;4.50;3.80;;;;;;;11.40;71.90;99373.88;105232;1291;22594;-87
2022/04/25 09:37:18;;;;;;;4.10;3.70;;;;;;;11.47;71.53;99376.84;105625;1285;22957;-87
2022/04/25 09:39:46;;;;;;;4.40;4.00;;;;;;;11.43;71.44;99380.84;105832;1281;25342;-86
2022/04/25 09:42:14;;;;;;;3.90;3.50;;;;;;;11.39;71.61;99381.82;105837;1282;25334;-89
2022/04/25 09:44:56;;;;;;;3.60;3.30;;;;;;;11.43;71.57;99388.05;106598;1282;22570;-88
2022/04/25 09:47:27;;;;;;;4.30;3.90;;;;;;;11.54;71.52;99388.64;107551;1281;22687;-89
2022/04/25 09:50:11;;;;;;;3.90;3.40;;;;;;;11.58;70.87;99389.92;107361;1281;22721;-89
2022/04/25 09:53:03;;;;;;;5.30;3.50;;;;;;;11.63;70.93;99395.77;107241;1281;26606;-89
2022/04/25 09:55:31;;;;;;;4.90;3.90;;;;;;;11.72;70.69;99394.27;107078;1281;22493;-88
2022/04/25 09:57:57;;;;;;;4.50;4.10;;;;;;;11.78;70.53;99397.62;107611;1281;22552;-88
2022/04/25 10:00:36;;;;;;;4.30;3.90;;;;;;;11.82;70.47;99394.84;107149;1282;22590;-88
2022/04/25 10:03:06;;;;;;;4.30;3.70;;;;;;;11.93;70.18;99399.65;106530;1282;24206;-89
2022/04/25 10:05:42;;;;;;;3.60;3.20;;;;;;;11.99;70.25;99403.16;106781;1282;23025;-88
2022/04/25 10:08:11;;;;;;;5.40;3.50;;;;;;;12.09;70.18;99397.58;106269;1282;22673;-88
2022/04/25 10:10:56;;;;;;;5.20;4.50;;;;;;;12.20;69.78;99395.30;106237;1282;22612;-87
2022/04/25 10:13:25;;;;;;;4.30;3.90;;;;;;;12.33;69.60;99399.48;106079;1281;24570;-88
2022/04/25 10:15:51;;;;;;;4.90;4.20;;;;;;;12.40;69.48;99401.20;106179;1281;22576;-89
2022/04/25 10:18:19;;;;;;;7.20;4.40;;;;;;;12.42;69.05;99406.46;105627;1285;22506;-84
2022/04/25 10:20:46;;;;;;;6.10;4.30;;;;;;;12.52;68.78;99409.13;105518;1285;22601;-87
2022/04/25 10:23:17;;;;;;;5.50;4.30;;;;;;;12.55;68.38;99411.14;105772;1285;22720;-87
2022/04/25 10:25:49;;;;;;;5.40;4.10;;;;;;;12.58;68.28;99410.52;105830;1285;22521;-87
2022/04/25 10:28:24;;;;;;;4.60;4.20;;;;;;;12.56;68.25;99410.58;105663;1285;22663;-85
2022/04/25 10:30:51;;;;;;;4.70;4.10;;;;;;;12.49;68.15;99414.15;106145;1285;22493;-89
2022/04/25 10:33:20;;;;;;;5.10;4.20;;;;;;;12.43;68.12;99411.00;105479;1286;22608;-87
2022/04/25 10:35:50;;;;;;;4.90;3.80;;;;;;;12.35;67.93;99413.89;105774;1285;22891;-88
2022/04/25 10:38:49;;;;;;;6.10;3.50;;;;;;;12.31;67.79;99413.86;106582;1281;22545;-89
2022/04/25 10:44:53;;;;;;;5.20;4.00;;;;;;;12.20;67.80;99421.81;106782;1269;22573;-87
2022/04/25 10:47:26;;;;;;;4.60;3.80;;;;;;;12.15;67.61;99430.05;105538;1288;24233;-89
2022/04/25 10:49:52;;;;;;;4.60;4.20;;;;;;;12.12;67.63;99432.59;106013;1288;22561;-85
2022/04/25 10:52:34;;;;;;;4.10;3.70;;;;;;;12.11;67.63;99436.17;105697;1287;23191;-88
2022/04/25 10:55:52;;;;;;;6.50;4.00;;;;;;;12.10;67.83;99435.50;105874;1287;22572;-87
2022/04/25 10:58:13;;;;;;;5.20;4.10;;;;;;;12.10;67.78;99437.79;105428;1287;25444;-87
2022/04/25 11:00:46;;;;;;;6.50;4.50;;;;;;;12.10;67.45;99438.14;105583;1288;22581;-86
2022/04/25 11:03:23;;;;;;;5.50;4.50;;;;;;;12.14;67.54;99438.73;105599;1287;23894;-88
2022/04/25 11:05:57;;;;;;;5.70;4.20;;;;;;;12.17;67.45;99439.37;105654;1288;25990;-88
2022/04/25 11:08:26;;;;;;;4.50;3.80;;;;;;;12.24;67.36;99445.49;105770;1288;22566;-87
2022/04/25 11:10:58;;;;;;;5.80;4.80;;;;;;;12.34;67.50;99449.95;107243;1287;22600;-88
2022/04/25 11:13:33;;;;;;;7.90;4.30;;;;;;;12.43;67.44;99449.69;108037;1287;22903;-88
2022/04/25 11:16:23;;;;;;;6.30;4.30;;;;;;;12.51;67.40;99449.41;107122;1287;22553;-87
2022/04/25 11:19:11;;;;;;;5.00;4.50;;;;;;;12.60;67.13;99453.71;105925;1287;22621;-89
2022/04/25 11:21:48;;;;;;;4.90;4.20;;;;;;;12.68;66.58;99450.82;105797;1288;23973;-87
2022/04/25 11:24:33;;;;;;;5.30;4.30;;;;;;;12.71;66.21;99450.37;105907;1279;22810;-87
2022/04/25 11:27:04;;;;;;;5.90;4.70;;;;;;;12.71;66.12;99451.58;106752;1279;24368;-85
2022/04/25 11:29:31;;;;;;;4.50;4.10;;;;;;;12.71;66.21;99454.08;106901;1279;24218;-88
2022/04/25 11:32:24;;;;;;;4.70;3.80;;;;;;;12.70;66.06;99452.88;106643;1279;24380;-89
2022/04/25 11:34:52;;;;;;;4.50;4.10;;;;;;;12.65;65.80;99458.32;106596;1279;22725;-87
2022/04/25 11:37:19;;;;;;;5.90;3.90;;;;;;;12.60;65.79;99459.38;105842;1282;22566;-90
2022/04/25 11:40:06;;;;;;;6.70;4.00;;;;;;;12.56;65.61;99458.80;105835;1281;22617;-88
2022/04/25 11:42:34;;;;;;;6.70;4.40;;;;;;;12.50;65.42;99465.16;106074;1279;22553;-89
2022/04/25 11:45:02;;;;;;;7.30;4.50;;;;;;;12.48;65.31;99465.77;106239;1279;25336;-88
2022/04/25 11:47:30;;;;;;;6.10;4.50;;;;;;;12.45;65.35;99469.41;106523;1278;22608;-87
2022/04/25 11:49:59;;;;;;;5.80;4.00;;;;;;;12.45;65.50;99473.83;106946;1279;23902;-88
2022/04/25 11:52:30;;;;;;;4.60;3.80;;;;;;;12.42;65.55;99479.54;107772;1279;22775;-88
2022/04/25 11:54:57;;;;;;;4.40;3.20;;;;;;;12.44;65.77;99476.83;107601;1279;22869;-88
2022/04/25 11:57:27;;;;;;;8.40;3.70;;;;;;;12.47;65.63;99477.11;108342;1279;22561;-89
2022/04/25 12:00:10;;;;;;;4.50;3.90;;;;;;;12.50;65.57;99474.54;108647;1279;22594;-89
2022/04/25 12:02:40;;;;;;;4.00;3.50;;;;;;;12.52;65.39;99480.48;108963;1279;22756;-87
2022/04/25 12:05:08;;;;;;;6.90;4.10;;;;;;;12.56;65.30;99475.23;108664;1279;23663;-89